Time;durP1;ratioP1;P1;durP2;ratioP2;P2;SDS_P1;SDS_P2;PMS_P1;PMS_P2;Temp;Humidity;BMP_temperature;BMP_pressure;BME280_temperature;BME280_humidity;BME280_pressure;Samples;Min_cycle;Max_cycle;Signal;HPM_P1;HPM_P2
2022/03/07 00:00:28;;;;;;;39.00;20.20;;;;;;;0.17;52.54;99352.64;106119;1274;107724;-71
2022/03/07 00:03:10;;;;;;;39.60;20.40;;;;;;;0.16;52.64;99353.87;106108;1275;97919;-70
2022/03/07 00:05:44;;;;;;;37.80;20.50;;;;;;;0.15;52.56;99350.60;106136;1275;97898;-70
2022/03/07 00:08:16;;;;;;;38.20;21.10;;;;;;;0.14;52.64;99351.30;106112;1275;111116;-70
2022/03/07 00:11:03;;;;;;;39.10;20.50;;;;;;;0.13;52.82;99350.61;106103;1274;97884;-69
2022/03/07 00:13:31;;;;;;;37.20;20.00;;;;;;;0.13;52.77;99349.23;106081;1276;107591;-70
2022/03/07 00:16:03;;;;;;;36.60;19.70;;;;;;;0.14;52.69;99350.08;106184;1273;95166;-70
2022/03/07 00:18:32;;;;;;;37.50;20.50;;;;;;;0.11;52.63;99346.84;106077;1273;95278;-70
2022/03/07 00:21:09;;;;;;;37.90;20.70;;;;;;;0.08;52.73;99348.13;106011;1274;111326;-70
2022/03/07 00:23:37;;;;;;;38.30;21.00;;;;;;;0.09;52.71;99345.86;106074;1274;96399;-70
2022/03/07 00:26:08;;;;;;;36.20;19.60;;;;;;;0.08;52.72;99343.42;106080;1274;107674;-70
2022/03/07 00:28:40;;;;;;;36.60;18.70;;;;;;;0.06;52.59;99347.66;106049;1274;98476;-70
2022/03/07 00:31:08;;;;;;;36.90;19.60;;;;;;;0.04;52.73;99348.59;106058;1274;97874;-70
2022/03/07 00:33:36;;;;;;;36.60;19.90;;;;;;;0.03;52.67;99348.27;106045;1274;111443;-72
2022/03/07 00:36:09;;;;;;;37.30;19.50;;;;;;;0.02;52.77;99350.20;106158;1274;97961;-72
2022/03/07 00:38:41;;;;;;;35.10;18.80;;;;;;;-0.00;52.72;99347.30;106179;1273;107711;-71
2022/03/07 00:41:12;;;;;;;34.60;18.70;;;;;;;-0.03;52.64;99343.02;106055;1274;95208;-71
2022/03/07 00:43:44;;;;;;;34.10;18.80;;;;;;;-0.04;52.66;99341.48;106194;1273;95183;-69
2022/03/07 00:46:12;;;;;;;35.00;18.40;;;;;;;-0.06;52.63;99342.38;106205;1274;111445;-70
2022/03/07 00:48:47;;;;;;;32.60;18.00;;;;;;;-0.08;52.46;99337.55;106070;1273;97883;-70
2022/03/07 00:51:15;;;;;;;36.10;18.30;;;;;;;-0.11;52.51;99337.98;106130;1273;108322;-69
2022/03/07 00:53:46;;;;;;;32.90;16.20;;;;;;;-0.15;52.52;99335.44;106119;1273;97868;-70
2022/03/07 00:56:18;;;;;;;30.50;16.30;;;;;;;-0.17;52.40;99334.64;106193;1273;97877;-68
2022/03/07 00:58:50;;;;;;;32.30;17.40;;;;;;;-0.18;52.58;99330.46;106119;1273;112134;-69
2022/03/07 01:01:19;;;;;;;32.70;16.80;;;;;;;-0.18;52.69;99327.50;106163;1273;97862;-68
2022/03/07 01:03:55;;;;;;;33.80;18.00;;;;;;;-0.17;52.62;99326.61;106111;1273;108340;-70
2022/03/07 01:06:23;;;;;;;33.70;17.60;;;;;;;-0.17;52.69;99323.83;106168;1273;97972;-70
2022/03/07 01:08:51;;;;;;;33.20;17.20;;;;;;;-0.19;52.60;99324.73;106196;1273;97978;-73
2022/03/07 01:11:19;;;;;;;33.60;17.00;;;;;;;-0.19;52.50;99322.65;106179;1273;111368;-70
2022/03/07 01:13:47;;;;;;;32.80;18.20;;;;;;;-0.20;52.61;99317.11;106215;1273;97957;-71
2022/03/07 01:16:21;;;;;;;34.10;16.90;;;;;;;-0.20;52.61;99312.39;106102;1273;107761;-71
2022/03/07 01:18:51;;;;;;;32.80;16.20;;;;;;;-0.20;52.56;99316.76;106134;1273;97881;-71
2022/03/07 01:21:19;;;;;;;34.00;18.40;;;;;;;-0.23;52.52;99318.40;106176;1273;97874;-70
2022/03/07 01:23:47;;;;;;;37.20;18.70;;;;;;;-0.29;52.43;99313.33;106183;1273;111316;-70
2022/03/07 01:26:15;;;;;;;35.30;18.00;;;;;;;-0.37;52.33;99315.23;106197;1273;96992;-70
2022/03/07 01:28:48;;;;;;;32.00;16.90;;;;;;;-0.44;52.31;99309.33;106193;1273;107113;-71
2022/03/07 01:31:16;;;;;;;33.80;17.80;;;;;;;-0.44;52.46;99308.26;106087;1276;98037;-71
2022/03/07 01:33:44;;;;;;;35.40;17.60;;;;;;;-0.43;52.45;99309.65;106196;1273;97843;-72
2022/03/07 01:36:16;;;;;;;34.90;17.50;;;;;;;-0.43;52.65;99310.17;106161;1273;111301;-66
2022/03/07 01:38:46;;;;;;;34.20;18.20;;;;;;;-0.43;52.45;99304.95;106078;1274;97679;-71
2022/03/07 01:41:14;;;;;;;33.80;18.10;;;;;;;-0.44;52.57;99300.96;106071;1274;105820;-71
2022/03/07 01:43:43;;;;;;;33.30;16.80;;;;;;;-0.44;52.49;99298.86;106112;1274;97750;-69
2022/03/07 01:46:11;;;;;;;34.20;16.70;;;;;;;-0.44;52.26;99298.51;106102;1274;95191;-69
2022/03/07 01:48:43;;;;;;;33.10;18.00;;;;;;;-0.45;52.54;99296.80;106059;1274;111821;-69
2022/03/07 01:51:17;;;;;;;34.80;18.50;;;;;;;-0.50;52.28;99295.16;106082;1276;97937;-70
2022/03/07 01:53:45;;;;;;;33.80;18.30;;;;;;;-0.53;52.39;99296.98;106043;1274;108415;-70
2022/03/07 01:56:17;;;;;;;34.10;18.40;;;;;;;-0.60;52.49;99293.13;106097;1275;97961;-69
2022/03/07 01:58:44;;;;;;;35.30;17.50;;;;;;;-0.66;52.38;99286.30;106106;1274;97976;-71
2022/03/07 02:01:13;;;;;;;32.10;17.00;;;;;;;-0.69;52.34;99286.21;106108;1273;111440;-69
2022/03/07 02:03:44;;;;;;;35.00;17.90;;;;;;;-0.70;52.60;99283.61;106164;1273;97860;-71
2022/03/07 02:06:12;;;;;;;37.90;18.40;;;;;;;-0.69;52.58;99282.72;106074;1274;107731;-69
2022/03/07 02:08:47;;;;;;;34.90;18.50;;;;;;;-0.69;52.69;99282.02;106109;1273;97999;-69
2022/03/07 02:11:15;;;;;;;33.90;18.20;;;;;;;-0.69;52.26;99282.71;106213;1274;97847;-69
2022/03/07 02:13:43;;;;;;;35.00;18.00;;;;;;;-0.68;52.50;99283.23;106154;1275;111372;-71
2022/03/07 02:16:14;;;;;;;34.10;17.20;;;;;;;-0.70;52.50;99282.40;106111;1273;97872;-72
2022/03/07 02:18:51;;;;;;;38.10;18.90;;;;;;;-0.70;52.48;99282.21;106158;1274;107752;-71
2022/03/07 02:21:18;;;;;;;;;;;;;;;-0.69;52.34;99279.95;106144;1274;95352;-71
2022/03/07 02:23:46;;;;;;;33.90;16.60;;;;;;;-0.73;52.44;99279.49;106170;1275;97924;-71
2022/03/07 02:26:19;;;;;;;36.20;19.00;;;;;;;-0.73;52.67;99277.23;106132;1274;109972;-71
2022/03/07 02:28:47;;;;;;;39.40;18.80;;;;;;;-0.73;52.51;99275.50;106149;1274;97877;-70
2022/03/07 02:31:20;;;;;;;35.30;18.60;;;;;;;-0.72;52.77;99268.69;106088;1274;107786;-73
2022/03/07 02:33:53;;;;;;;39.20;19.10;;;;;;;-0.73;52.82;99264.17;106122;1274;97968;-70
2022/03/07 02:36:25;;;;;;;34.80;18.40;;;;;;;-0.76;52.34;99265.97;106187;1274;97884;-71
2022/03/07 02:38:53;;;;;;;35.40;19.30;;;;;;;-0.77;52.62;99264.42;106130;1274;112257;-70
2022/03/07 02:41:21;;;;;;;34.70;17.90;;;;;;;-0.77;52.63;99260.60;106159;1274;95180;-70
2022/03/07 02:43:49;;;;;;;37.10;18.70;;;;;;;-0.77;52.53;99261.11;106133;1274;108099;-71
2022/03/07 02:46:21;;;;;;;35.70;18.90;;;;;;;-0.77;52.58;99258.70;106149;1274;97947;-70
2022/03/07 02:48:52;;;;;;;37.40;18.40;;;;;;;-0.78;52.54;99261.50;106105;1274;97867;-66
2022/03/07 02:51:20;;;;;;;34.80;18.50;;;;;;;-0.81;52.49;99255.48;106044;1275;111628;-71
2022/03/07 02:53:50;;;;;;;33.50;17.70;;;;;;;-0.84;52.56;99254.51;106137;1274;95289;-69
2022/03/07 02:56:18;;;;;;;33.20;17.00;;;;;;;-0.85;52.32;99251.92;106138;1274;107483;-70
2022/03/07 02:58:50;;;;;;;35.10;18.40;;;;;;;-0.88;52.49;99248.32;106098;1274;97871;-70
2022/03/07 03:01:19;;;;;;;30.80;16.90;;;;;;;-0.92;52.44;99251.71;106101;1274;95191;-70
2022/03/07 03:03:49;;;;;;;34.60;18.00;;;;;;;-0.94;52.44;99251.94;106091;1274;112057;-70
2022/03/07 03:06:20;;;;;;;29.60;16.40;;;;;;;-0.96;52.57;99248.33;106061;1274;97944;-69
2022/03/07 03:08:50;;;;;;;34.10;17.40;;;;;;;-0.97;52.55;99252.34;106112;1274;107753;-69
2022/03/07 03:11:18;;;;;;;35.10;17.50;;;;;;;-0.99;52.65;99248.39;106156;1273;97921;-69
2022/03/07 03:13:51;;;;;;;38.00;18.90;;;;;;;-1.02;52.50;99244.63;106174;1274;98018;-69
2022/03/07 03:16:18;;;;;;;32.20;17.60;;;;;;;-1.01;52.45;99246.52;106154;1274;111145;-70
2022/03/07 03:18:46;;;;;;;30.30;17.00;;;;;;;-1.01;52.75;99247.41;106168;1273;95233;-70
2022/03/07 03:21:14;;;;;;;31.50;16.20;;;;;;;-1.01;52.81;99246.70;106143;1274;107723;-71
2022/03/07 03:23:42;;;;;;;40.80;19.00;;;;;;;-0.99;52.73;99245.60;106180;1274;98007;-70
2022/03/07 03:26:10;;;;;;;30.30;16.60;;;;;;;-0.97;52.79;99243.66;106233;1273;95361;-71
2022/03/07 03:28:42;;;;;;;29.20;16.40;;;;;;;-0.97;52.47;99243.48;106147;1274;111420;-70
2022/03/07 03:31:11;;;;;;;32.90;17.70;;;;;;;-0.97;52.61;99246.63;106232;1274;97969;-71
2022/03/07 03:33:43;;;;;;;31.70;15.80;;;;;;;-0.97;52.42;99247.83;106197;1274;107784;-70
2022/03/07 03:36:12;;;;;;;32.90;16.70;;;;;;;-0.97;52.58;99246.45;105916;1274;436515;-69
2022/03/07 03:38:41;;;;;;;30.80;16.30;;;;;;;-0.97;52.54;99243.31;106221;1274;95982;-69
2022/03/07 03:41:12;;;;;;;30.40;16.20;;;;;;;-0.98;52.36;99241.43;106145;1274;111797;-67
2022/03/07 03:43:41;;;;;;;28.30;16.00;;;;;;;-0.99;52.33;99242.83;106198;1274;95299;-69
2022/03/07 03:46:15;;;;;;;32.30;17.20;;;;;;;-0.99;52.43;99245.98;106140;1274;108334;-71
2022/03/07 03:48:43;;;;;;;30.20;16.40;;;;;;;-0.99;52.67;99244.39;106200;1274;99081;-73
2022/03/07 03:51:11;;;;;;;32.40;16.70;;;;;;;-1.00;52.42;99240.40;106211;1274;98539;-72
2022/03/07 03:53:39;;;;;;;31.00;16.70;;;;;;;-1.01;52.54;99241.47;106241;1274;111303;-71
2022/03/07 03:56:07;;;;;;;33.50;17.10;;;;;;;-1.00;52.58;99242.67;106289;1274;97944;-69
2022/03/07 03:58:35;;;;;;;30.00;16.20;;;;;;;-1.01;52.45;99236.60;106176;1274;108394;-69
2022/03/07 04:01:05;;;;;;;32.00;17.50;;;;;;;-1.01;52.65;99233.48;106148;1274;96591;-71
2022/03/07 04:03:41;;;;;;;32.80;17.30;;;;;;;-1.01;52.54;99231.89;106124;1274;96977;-71
2022/03/07 04:06:09;;;;;;;32.30;17.10;;;;;;;-1.01;52.69;99232.77;106108;1274;111422;-71
2022/03/07 04:08:39;;;;;;;32.40;17.00;;;;;;;-1.02;52.27;99235.92;106175;1274;97957;-72
2022/03/07 04:11:07;;;;;;;34.60;17.90;;;;;;;-1.04;52.57;99228.86;106211;1273;108678;-71
2022/03/07 04:13:35;;;;;;;30.50;16.70;;;;;;;-1.09;52.48;99227.03;106248;1274;97894;-70
2022/03/07 04:16:03;;;;;;;32.10;16.20;;;;;;;-1.10;52.41;99234.17;106193;1274;96997;-70
2022/03/07 04:18:35;;;;;;;29.20;15.50;;;;;;;-1.09;52.28;99235.05;106196;1274;111277;-69
2022/03/07 04:21:03;;;;;;;30.10;15.60;;;;;;;-1.11;52.07;99234.73;106086;1274;97913;-70
2022/03/07 04:23:31;;;;;;;28.80;15.20;;;;;;;-1.11;51.98;99233.20;106124;1274;107882;-69
2022/03/07 04:26:03;;;;;;;31.00;15.60;;;;;;;-1.09;52.12;99230.52;106209;1274;97996;-70
2022/03/07 04:28:35;;;;;;;31.30;17.50;;;;;;;-1.07;52.17;99226.99;106146;1274;97941;-68
2022/03/07 04:31:03;;;;;;;30.60;16.40;;;;;;;-1.06;52.48;99223.48;106149;1274;111924;-70
2022/03/07 04:33:31;;;;;;;29.40;16.00;;;;;;;-1.06;52.18;99224.54;106175;1274;97929;-69
2022/03/07 04:36:04;;;;;;;29.60;16.00;;;;;;;-1.05;52.26;99222.60;106206;1274;107606;-70
2022/03/07 04:38:32;;;;;;;31.00;16.90;;;;;;;-1.06;52.22;99220.01;106101;1274;96397;-68
2022/03/07 04:41:04;;;;;;;32.10;17.10;;;;;;;-1.07;52.25;99217.77;106185;1274;95162;-69
2022/03/07 04:43:34;;;;;;;30.00;16.50;;;;;;;-1.13;52.16;99219.48;106171;1274;111883;-69
2022/03/07 04:46:10;;;;;;;31.30;16.40;;;;;;;-1.18;52.13;99218.35;106218;1273;97766;-70
2022/03/07 04:48:42;;;;;;;29.70;15.90;;;;;;;-1.21;52.03;99222.41;106187;1274;107641;-69
2022/03/07 04:51:15;;;;;;;30.60;16.00;;;;;;;-1.23;51.70;99224.73;106177;1273;98980;-69
2022/03/07 04:53:42;;;;;;;31.40;16.90;;;;;;;-1.25;51.96;99224.07;106205;1273;97958;-69
2022/03/07 04:56:11;;;;;;;31.30;16.30;;;;;;;-1.25;51.98;99223.89;106216;1273;111253;-70
2022/03/07 04:58:42;;;;;;;30.60;16.90;;;;;;;-1.24;52.01;99223.19;106027;1274;97885;-70
2022/03/07 05:01:16;;;;;;;32.90;17.60;;;;;;;-1.21;51.94;99220.34;106070;1273;107600;-72
2022/03/07 05:03:44;;;;;;;28.50;15.30;;;;;;;-1.22;51.92;99221.58;106102;1274;96971;-69
2022/03/07 05:06:17;;;;;;;36.50;20.00;;;;;;;-1.23;51.86;99221.96;106135;1273;97886;-70
2022/03/07 05:08:45;;;;;;;38.50;20.10;;;;;;;-1.25;52.12;99218.51;106104;1273;111380;-71
2022/03/07 05:11:13;;;;;;;45.90;23.00;;;;;;;-1.27;51.68;99217.52;106113;1273;97973;-70
2022/03/07 05:13:40;;;;;;;41.50;21.60;;;;;;;-1.30;51.64;99219.14;106099;1273;107740;-71
2022/03/07 05:16:08;;;;;;;41.40;22.30;;;;;;;-1.35;51.70;99216.45;106116;1273;97006;-70
2022/03/07 05:18:36;;;;;;;44.90;23.80;;;;;;;-1.39;51.89;99218.11;106171;1273;95304;-69
2022/03/07 05:21:09;;;;;;;38.10;18.70;;;;;;;-1.42;51.61;99216.45;106079;1273;111279;-71
2022/03/07 05:23:41;;;;;;;39.10;19.60;;;;;;;-1.43;51.68;99215.59;106098;1273;97960;-70
2022/03/07 05:26:09;;;;;;;33.90;18.90;;;;;;;-1.44;51.51;99214.26;106055;1273;108841;-70
2022/03/07 05:28:37;;;;;;;34.70;18.90;;;;;;;-1.46;51.49;99209.91;106096;1273;97881;-71
2022/03/07 05:31:11;;;;;;;35.50;17.90;;;;;;;-1.47;52.01;99208.03;106096;1273;97871;-71
2022/03/07 05:33:43;;;;;;;33.10;19.00;;;;;;;-1.48;51.62;99210.84;106016;1274;111432;-73
2022/03/07 05:36:11;;;;;;;36.40;19.00;;;;;;;-1.49;51.71;99211.73;106178;1274;97985;-69
2022/03/07 05:38:39;;;;;;;36.30;19.70;;;;;;;-1.52;51.62;99212.83;106119;1274;107890;-71
2022/03/07 05:41:09;;;;;;;35.90;20.70;;;;;;;-1.55;51.68;99211.14;106123;1273;97963;-71
2022/03/07 05:43:37;;;;;;;36.20;19.20;;;;;;;-1.56;51.48;99212.40;106089;1273;97842;-69
2022/03/07 05:46:06;;;;;;;36.50;19.40;;;;;;;-1.58;51.70;99214.16;106066;1273;111549;-71
2022/03/07 05:48:35;;;;;;;38.00;20.10;;;;;;;-1.60;51.70;99215.77;106050;1273;98777;-71
2022/03/07 05:51:03;;;;;;;38.50;20.10;;;;;;;-1.61;51.54;99216.65;106012;1273;107430;-70
2022/03/07 05:53:30;;;;;;;34.80;18.90;;;;;;;-1.65;51.74;99216.91;106054;1273;97941;-69
2022/03/07 05:56:01;;;;;;;37.00;20.00;;;;;;;-1.68;51.51;99215.07;106130;1273;97845;-69
2022/03/07 05:58:29;;;;;;;34.00;18.20;;;;;;;-1.69;51.64;99214.56;105973;1274;111260;-72
2022/03/07 06:00:57;;;;;;;41.50;20.20;;;;;;;-1.67;51.79;99214.52;106026;1272;95204;-71
2022/03/07 06:03:26;;;;;;;38.70;20.60;;;;;;;-1.63;51.55;99215.86;106032;1273;107795;-71
2022/03/07 06:05:54;;;;;;;39.60;20.40;;;;;;;-1.64;51.86;99216.71;106024;1273;96323;-68
2022/03/07 06:08:22;;;;;;;36.00;18.60;;;;;;;-1.65;51.76;99222.30;105928;1273;99107;-71
2022/03/07 06:10:50;;;;;;;37.80;20.10;;;;;;;-1.61;51.90;99223.10;106115;1273;111364;-70
2022/03/07 06:13:19;;;;;;;38.70;20.20;;;;;;;-1.61;51.60;99226.56;106169;1274;97979;-74
2022/03/07 06:15:47;;;;;;;36.90;20.00;;;;;;;-1.59;51.63;99227.40;106054;1273;106033;-70
2022/03/07 06:18:16;;;;;;;35.80;19.30;;;;;;;-1.59;51.63;99229.14;106026;1273;97978;-70
2022/03/07 06:20:44;;;;;;;40.20;21.20;;;;;;;-1.57;51.82;99228.41;106082;1273;97856;-71
2022/03/07 06:23:12;;;;;;;36.50;19.90;;;;;;;-1.58;51.77;99226.16;106108;1273;111346;-69
2022/03/07 06:25:40;;;;;;;39.10;22.00;;;;;;;-1.55;51.71;99227.31;106122;1273;97956;-71
2022/03/07 06:28:09;;;;;;;37.90;21.50;;;;;;;-1.55;51.64;99227.84;106085;1273;107859;-73
2022/03/07 06:30:37;;;;;;;39.80;22.00;;;;;;;-1.58;51.77;99228.77;106028;1273;97894;-70
2022/03/07 06:33:05;;;;;;;43.30;22.10;;;;;;;-1.58;51.63;99227.90;106039;1273;95295;-71
2022/03/07 06:35:33;;;;;;;34.80;19.70;;;;;;;-1.58;51.62;99227.20;106001;1273;111989;-72
2022/03/07 06:38:01;;;;;;;40.20;21.00;;;;;;;-1.57;51.67;99223.72;106033;1273;97936;-71
2022/03/07 06:40:29;;;;;;;37.40;20.50;;;;;;;-1.57;51.77;99222.83;106061;1273;108283;-70
2022/03/07 06:42:58;;;;;;;41.20;20.80;;;;;;;-1.55;51.75;99225.05;105979;1273;97877;-72
2022/03/07 06:45:26;;;;;;;37.70;19.80;;;;;;;-1.55;51.78;99223.33;106056;1273;96316;-73
2022/03/07 06:47:54;;;;;;;39.20;21.10;;;;;;;-1.55;51.64;99224.36;106152;1273;110376;-74
2022/03/07 06:50:27;;;;;;;41.50;22.80;;;;;;;-1.53;51.83;99228.67;106059;1273;98011;-71
2022/03/07 06:52:56;;;;;;;39.70;21.50;;;;;;;-1.51;51.76;99229.50;106078;1273;107731;-71
2022/03/07 06:55:25;;;;;;;37.60;20.40;;;;;;;-1.48;52.05;99233.61;106158;1274;98598;-74
2022/03/07 06:57:53;;;;;;;38.90;20.80;;;;;;;-1.44;51.74;99237.17;106214;1273;97738;-72
2022/03/07 07:00:21;;;;;;;42.10;21.40;;;;;;;-1.38;51.90;99237.92;106182;1274;111197;-72
2022/03/07 07:02:49;;;;;;;38.60;20.00;;;;;;;-1.33;51.85;99237.14;105980;1273;96336;-72
2022/03/07 07:05:17;;;;;;;37.10;20.20;;;;;;;-1.26;52.06;99234.54;106095;1273;105646;-72
2022/03/07 07:07:45;;;;;;;41.00;21.80;;;;;;;-1.19;52.13;99237.86;106050;1273;96394;-70
2022/03/07 07:10:19;;;;;;;39.90;20.40;;;;;;;-1.20;51.81;99236.49;106074;1273;95903;-73
2022/03/07 07:12:49;;;;;;;36.50;21.20;;;;;;;-1.20;52.05;99235.09;106054;1273;111370;-71
2022/03/07 07:15:19;;;;;;;36.00;19.60;;;;;;;-1.22;52.03;99239.66;106102;1273;97886;-73
2022/03/07 07:17:47;;;;;;;40.10;21.20;;;;;;;-1.23;51.81;99239.34;106188;1273;107575;-73
2022/03/07 07:20:15;;;;;;;38.00;21.20;;;;;;;-1.18;52.02;99242.03;106081;1273;97993;-72
2022/03/07 07:22:43;;;;;;;34.00;19.30;;;;;;;-1.20;52.09;99241.72;106172;1273;97873;-73
2022/03/07 07:25:11;;;;;;;38.30;21.50;;;;;;;-1.18;52.11;99241.85;106156;1273;111443;-71
2022/03/07 07:27:39;;;;;;;47.80;24.00;;;;;;;-1.13;52.13;99236.36;106090;1273;95177;-72
2022/03/07 07:30:09;;;;;;;47.50;24.80;;;;;;;-1.12;51.91;99236.51;106102;1273;107692;-73
2022/03/07 07:32:40;;;;;;;37.90;21.20;;;;;;;-1.14;52.14;99232.89;106046;1273;98547;-71
2022/03/07 07:35:09;;;;;;;39.40;22.90;;;;;;;-1.10;52.18;99231.77;106086;1273;96011;-72
2022/03/07 07:37:38;;;;;;;38.30;21.60;;;;;;;-1.06;52.17;99230.45;106101;1273;112034;-71
2022/03/07 07:40:08;;;;;;;37.60;20.00;;;;;;;-1.04;51.99;99234.41;106057;1273;97877;-71
2022/03/07 07:42:36;;;;;;;37.10;20.10;;;;;;;-1.00;52.09;99228.39;105982;1273;106701;-71
2022/03/07 07:45:06;;;;;;;35.90;20.50;;;;;;;-0.98;52.10;99230.79;105989;1273;97996;-70
2022/03/07 07:47:35;;;;;;;37.00;20.00;;;;;;;-0.93;52.33;99232.23;105972;1273;95458;-71
2022/03/07 07:50:06;;;;;;;34.40;19.80;;;;;;;-0.91;52.48;99228.72;106344;1273;112016;-72
2022/03/07 07:52:34;;;;;;;34.40;19.70;;;;;;;-0.90;52.07;99228.69;106019;1273;97882;-70
2022/03/07 07:55:05;;;;;;;35.60;19.50;;;;;;;-0.86;52.10;99228.45;107746;1272;107545;-70
2022/03/07 07:57:35;;;;;;;37.80;21.30;;;;;;;-0.84;52.31;99224.73;105946;1273;97884;-71
2022/03/07 08:00:04;;;;;;;37.70;21.10;;;;;;;-0.80;52.32;99221.51;105980;1273;95917;-70
2022/03/07 08:02:46;;;;;;;39.20;21.50;;;;;;;-0.77;52.45;99219.16;106072;1273;111220;-70
2022/03/07 08:05:18;;;;;;;37.40;20.10;;;;;;;-0.77;52.33;99220.20;105980;1273;97932;-70
2022/03/07 08:07:49;;;;;;;34.40;20.20;;;;;;;-0.75;52.34;99220.69;106804;1273;106199;-71
2022/03/07 08:10:18;;;;;;;33.70;19.10;;;;;;;-0.70;52.37;99221.62;106178;1273;97799;-71
2022/03/07 08:12:49;;;;;;;38.90;21.80;;;;;;;-0.68;52.22;99221.39;106160;1273;97836;-71
2022/03/07 08:15:23;;;;;;;43.70;23.80;;;;;;;-0.69;52.26;99220.04;106147;1273;111514;-73
2022/03/07 08:17:51;;;;;;;49.60;25.10;;;;;;;-0.77;52.36;99225.60;106041;1274;95834;-70
2022/03/07 08:20:25;;;;;;;55.10;26.80;;;;;;;-0.83;52.61;99224.89;106052;1273;107621;-72
2022/03/07 08:22:56;;;;;;;48.20;23.80;;;;;;;-0.83;52.67;99227.84;106126;1273;97998;-71
2022/03/07 08:25:25;;;;;;;38.10;20.40;;;;;;;-0.80;52.48;99224.09;106128;1273;95295;-72
2022/03/07 08:27:55;;;;;;;39.60;23.30;;;;;;;-0.80;52.70;99229.85;106180;1273;111316;-71
2022/03/07 08:30:27;;;;;;;43.20;21.60;;;;;;;-0.83;52.51;99227.50;106160;1271;98457;-72
2022/03/07 08:32:58;;;;;;;41.60;23.20;;;;;;;-0.81;52.65;99225.88;106180;1273;107640;-70
2022/03/07 08:35:28;;;;;;;41.90;23.20;;;;;;;-0.81;52.41;99230.05;106155;1273;95360;-70
2022/03/07 08:37:56;;;;;;;35.20;20.20;;;;;;;-0.84;52.60;99228.05;106092;1273;97252;-70
2022/03/07 08:40:27;;;;;;;36.80;20.40;;;;;;;-0.83;52.55;99229.77;106109;1273;111985;-69
2022/03/07 08:42:55;;;;;;;40.10;21.50;;;;;;;-0.79;52.60;99228.61;106176;1273;96950;-70
2022/03/07 08:45:25;;;;;;;35.00;19.90;;;;;;;-0.75;52.54;99231.13;106204;1273;107762;-69
2022/03/07 08:48:15;;;;;;;35.30;17.90;;;;;;;-0.74;52.81;99229.19;106073;1273;97906;-69
2022/03/07 08:50:48;;;;;;;34.00;17.80;;;;;;;-0.77;52.54;99228.73;106114;1273;97860;-71
2022/03/07 08:53:18;;;;;;;35.20;18.40;;;;;;;-0.74;52.88;99224.14;106146;1272;111415;-71
2022/03/07 08:55:48;;;;;;;36.50;20.40;;;;;;;-0.71;52.86;99222.50;106066;1273;97891;-70
2022/03/07 08:58:41;;;;;;;37.70;19.00;;;;;;;-0.65;52.78;99220.09;106078;1273;108389;-68
2022/03/07 09:01:09;;;;;;;35.00;19.40;;;;;;;-0.60;52.70;99221.73;106135;1272;95273;-70
2022/03/07 09:03:40;;;;;;;36.00;19.40;;;;;;;-0.56;52.63;99225.45;106096;1273;98959;-71
2022/03/07 09:06:10;;;;;;;35.80;20.90;;;;;;;-0.56;52.95;99225.80;106114;1273;112633;-70
2022/03/07 09:08:39;;;;;;;41.00;21.50;;;;;;;-0.55;52.70;99220.20;106095;1273;98514;-70
2022/03/07 09:11:07;;;;;;;36.30;20.90;;;;;;;-0.52;52.68;99220.98;106139;1273;107729;-73
2022/03/07 09:13:35;;;;;;;36.30;19.60;;;;;;;-0.48;52.86;99221.23;106122;1273;97976;-70
2022/03/07 09:16:03;;;;;;;34.10;19.70;;;;;;;-0.43;52.74;99222.70;106219;1272;97989;-70
2022/03/07 09:18:31;;;;;;;36.50;19.90;;;;;;;-0.36;53.09;99224.77;106037;1273;111304;-70
2022/03/07 09:20:59;;;;;;;39.40;20.20;;;;;;;-0.29;52.92;99224.42;106078;1273;97713;-70
2022/03/07 09:23:37;;;;;;;40.60;21.20;;;;;;;-0.27;53.01;99221.41;106154;1272;109047;-70
2022/03/07 09:26:09;;;;;;;39.40;21.00;;;;;;;-0.24;52.97;99223.79;106110;1273;98000;-68
2022/03/07 09:28:37;;;;;;;37.80;20.00;;;;;;;-0.21;52.95;99224.21;106092;1273;97873;-72
2022/03/07 09:31:06;;;;;;;36.50;21.10;;;;;;;-0.19;53.14;99223.13;106128;1273;111224;-71
2022/03/07 09:33:36;;;;;;;40.00;22.00;;;;;;;-0.17;53.09;99226.90;106062;1273;95411;-71
2022/03/07 09:36:06;;;;;;;39.20;21.30;;;;;;;-0.16;53.00;99222.70;106144;1271;108194;-67
2022/03/07 09:38:36;;;;;;;39.50;20.60;;;;;;;-0.15;53.11;99224.59;106310;1273;97987;-71
2022/03/07 09:41:07;;;;;;;36.50;21.70;;;;;;;-0.12;53.07;99224.16;106189;1273;97861;-68
2022/03/07 09:43:37;;;;;;;38.10;20.60;;;;;;;-0.11;53.13;99224.33;106141;1273;111527;-71
2022/03/07 09:46:05;;;;;;;37.40;21.00;;;;;;;-0.12;53.35;99227.30;106156;1272;97950;-69
2022/03/07 09:48:33;;;;;;;41.00;22.40;;;;;;;-0.12;53.22;99229.23;106059;1274;107739;-71
2022/03/07 09:51:01;;;;;;;40.10;23.20;;;;;;;-0.12;53.23;99230.98;106041;1273;96664;-72
2022/03/07 09:53:32;;;;;;;44.00;22.80;;;;;;;-0.16;53.20;99230.72;106115;1272;95240;-70
2022/03/07 09:56:00;;;;;;;36.40;20.80;;;;;;;-0.21;53.23;99224.73;106085;1273;111493;-71
2022/03/07 09:58:28;;;;;;;36.60;20.20;;;;;;;-0.17;53.29;99224.30;106063;1273;96991;-70
2022/03/07 10:01:19;;;;;;;43.60;21.70;;;;;;;-0.08;53.31;99220.23;106161;1273;107651;-73
2022/03/07 10:04:14;;;;;;;35.40;20.30;;;;;;;0.06;53.38;99217.94;106223;1273;98094;-72
2022/03/07 10:06:50;;;;;;;44.20;25.60;;;;;;;0.22;53.49;99213.84;106158;1273;97996;-71
2022/03/07 10:09:25;;;;;;;38.10;21.90;;;;;;;0.24;53.38;99210.98;106107;1273;111334;-72
2022/03/07 10:12:02;;;;;;;37.00;20.80;;;;;;;0.20;53.29;99211.62;106132;1273;97864;-71
2022/03/07 10:14:46;;;;;;;38.10;20.40;;;;;;;0.31;53.45;99209.23;106093;1271;107609;-70
2022/03/07 10:17:27;;;;;;;32.80;18.00;;;;;;;0.41;53.53;99206.68;106010;1273;96500;-71
2022/03/07 10:20:01;;;;;;;32.70;17.20;;;;;;;0.57;53.52;99208.13;106073;1273;95372;-72
2022/03/07 10:22:45;;;;;;;32.90;17.10;;;;;;;0.69;53.36;99208.30;106161;1273;111587;-74
2022/03/07 10:25:16;;;;;;;34.50;17.00;;;;;;;0.79;53.54;99210.63;106124;1273;97950;-71
2022/03/07 10:27:49;;;;;;;31.60;17.30;;;;;;;0.85;53.34;99210.27;106068;1273;106713;-76
2022/03/07 10:30:20;;;;;;;32.60;17.40;;;;;;;0.91;53.52;99208.70;106108;1273;98041;-72
2022/03/07 10:32:56;;;;;;;34.40;19.30;;;;;;;0.94;53.33;99206.52;106065;1273;97861;-73
2022/03/07 10:35:29;;;;;;;35.00;18.20;;;;;;;0.93;53.42;99204.09;106108;1273;112408;-72
2022/03/07 10:38:24;;;;;;;32.10;17.90;;;;;;;0.96;53.55;99203.66;106119;1273;97889;-72
2022/03/07 10:40:55;;;;;;;34.40;17.50;;;;;;;1.03;53.58;99202.02;105958;1274;107755;-70
2022/03/07 10:43:25;;;;;;;;;;;;;;;1.15;53.89;99199.55;106165;1272;97903;-71
2022/03/07 10:46:02;;;;;;;31.90;17.60;;;;;;;1.28;53.79;99197.91;106137;1273;95200;-73
2022/03/07 10:48:42;;;;;;;31.00;17.10;;;;;;;1.36;53.82;99196.25;106122;1273;110961;-70
2022/03/07 10:51:20;;;;;;;35.90;18.20;;;;;;;1.38;53.54;99191.30;106182;1272;97773;-71
2022/03/07 10:53:49;;;;;;;39.00;20.40;;;;;;;1.48;53.95;99190.11;106068;1273;107863;-69
2022/03/07 10:56:21;;;;;;;37.70;20.60;;;;;;;1.56;53.69;99195.08;106159;1273;95959;-74
2022/03/07 10:58:55;;;;;;;34.00;17.70;;;;;;;1.63;53.53;99198.69;106154;1273;97857;-72
2022/03/07 11:01:32;;;;;;;29.80;17.10;;;;;;;1.71;53.90;99193.02;106085;1273;111362;-72
2022/03/07 11:04:02;;;;;;;31.20;16.70;;;;;;;1.78;53.86;99190.84;106081;1273;97814;-70
2022/03/07 11:06:30;;;;;;;31.20;17.80;;;;;;;1.82;53.77;99190.02;106088;1273;108521;-71
2022/03/07 11:08:58;;;;;;;33.70;17.90;;;;;;;1.81;53.60;99186.03;106093;1273;99297;-70
2022/03/07 11:11:30;;;;;;;31.00;17.70;;;;;;;1.70;53.43;99187.77;106140;1273;97792;-68
2022/03/07 11:14:01;;;;;;;37.80;18.90;;;;;;;1.56;53.64;99185.83;106098;1273;111384;-68
2022/03/07 11:16:32;;;;;;;31.70;17.40;;;;;;;1.47;53.62;99185.95;106062;1273;96589;-68
2022/03/07 11:19:03;;;;;;;34.90;18.80;;;;;;;1.44;53.55;99181.66;106190;1273;107085;-72
2022/03/07 11:21:35;;;;;;;34.90;19.60;;;;;;;1.43;53.79;99177.17;106085;1273;97977;-68